Latest Weather Observations for Morawa Airport

IDW60801

Issued at 8:04 pm WST Saturday 1 October 2016 (issued every 30 minutes, with the page automatically refreshed every 10 minutes)

About weather observations | Map of weather stations | Latest weather observations for WA | Other Formats
Station Details ID: 008296 Name: MORAWA AIRPORT Lat: -29.20 Lon: 116.02 Height: 271.4 m
Data from the previous 72 hours. | See also: Recent months at Morawa Airport
Date/Time
WST
Temp
°C
App
Temp
°C
Dew
Point
°C
Rel
Hum
%
Delta-T
°C
Wind Press
QNH
hPa
Press
MSL
hPa
Rain since
9am
mm
Dir  Spd
km/h
Gust
km/h
Spd
kts
Gust
kts
01/08:00pm 11.8 7.9 7.3 74 2.2 WSW 17 26 9 14 1013.0 1012.2 0.0
01/07:30pm 11.6 8.6 7.5 76 2.0 WSW 13 24 7 13 1012.7 1011.9 0.0
01/07:00pm 12.1 8.6 7.4 73 2.3 WSW 15 22 8 12 1012.4 1011.5 0.0
01/06:30pm 12.6 8.3 7.1 69 2.7 WSW 19 30 10 16 1012.0 1011.1 0.0
01/06:00pm 13.3 7.4 7.3 67 3.0 SW 28 41 15 22 1011.7 1010.8 0.0
01/05:30pm 15.3 8.4 6.3 55 4.4 WSW 32 54 17 29 1011.0 1010.1 0.0
01/05:00pm 16.4 8.5 4.4 45 5.7 WSW 35 56 19 30 1010.6 1009.7 0.0
01/04:30pm 16.7 8.2 3.4 41 6.2 WSW 37 61 20 33 1010.5 1009.6 0.0
01/04:00pm 17.6 8.0 1.2 33 7.4 WSW 41 63 22 34 1010.2 1009.3 0.0
01/03:33pm 18.2 10.2 4.0 39 6.8 WSW 35 54 19 29 1009.7 1008.8 0.0
01/03:30pm 18.3 10.4 4.1 39 6.8 WSW 35 54 19 29 1009.7 1008.8 0.0
01/03:05pm 19.4 12.0 6.8 44 6.4 WSW 35 54 19 29 1009.2 1008.3 0.0
01/03:00pm 18.7 10.8 7.8 49 5.7 WSW 39 56 21 30 1009.2 1008.3 0.0
01/02:30pm 19.1 11.2 6.2 43 6.5 W 37 61 20 33 1008.9 1008.0 0.0
01/02:00pm 19.9 11.3 4.8 37 7.4 WSW 39 65 21 35 1009.1 1008.2 0.0
01/01:38pm 19.2 10.1 3.8 36 7.4 WSW 41 59 22 32 1009.1 1008.2 0.0
01/01:30pm 19.2 10.9 7.6 47 6.0 WSW 41 57 22 31 1009.0 1008.1 0.0
01/01:00pm 20.0 12.1 6.4 41 6.9 W 37 56 20 30 1008.9 1008.0 0.0
01/12:30pm 18.9 11.9 8.6 51 5.4 WSW 35 54 19 29 1009.2 1008.3 0.0
01/12:08pm 20.1 13.9 7.8 45 6.4 W 30 48 16 26 1009.3 1008.4 0.0
01/12:00pm 19.5 12.9 8.5 49 5.8 WSW 33 50 18 27 1009.3 1008.4 0.0
01/11:30am 20.5 14.1 8.5 46 6.4 W 32 56 17 30 1009.5 1008.7 0.0
01/11:00am 18.4 11.6 9.2 55 4.9 WSW 35 56 19 30 1009.9 1009.0 0.0
01/10:31am 18.5 12.7 10.8 61 4.2 W 32 52 17 28 1009.9 1009.0 0.0
01/10:30am 18.1 12.0 10.5 61 4.1 W 33 52 18 28 1009.8 1008.9 0.0
01/10:27am 18.5 13.0 10.6 60 4.3 W 30 48 16 26 1009.8 1008.9 0.0
01/10:00am 18.4 13.9 11.5 64 3.8 W 26 37 14 20 1009.9 1009.0 0.0
01/09:45am 16.9 10.9 10.7 67 3.4 W 33 57 18 31 1010.1 1009.2 0.0
01/09:30am 17.7 12.7 11.0 65 3.7 W 28 43 15 23 1009.9 1009.0 0.0
01/09:00am 16.6 11.6 12.2 75 2.5 W 30 43 16 23 1010.0 1009.1 2.8
01/08:30am 15.9 11.7 13.6 86 1.3 W 28 46 15 25 1009.9 1009.0 2.8
01/08:00am 15.0 12.0 14.8 99 0.1 W 24 33 13 18 1009.4 1008.6 2.8
01/07:30am 14.1 10.5 14.1 100 0.0 W 26 39 14 21 1009.1 1008.7 2.8
01/07:00am 13.6 10.2 13.6 100 0.0 WNW 24 37 13 20 1009.0 1008.6 2.8
01/06:30am 12.9 10.6 12.9 100 0.0 WNW 17 26 9 14 1008.8 1008.4 2.8
01/06:00am 12.7 10.3 12.7 100 0.0 WNW 17 26 9 14 1008.5 1008.1 2.6
01/05:30am 12.9 10.6 12.9 100 0.0 WNW 17 24 9 13 1008.3 1007.9 2.6
01/05:00am 12.8 10.4 12.8 100 0.0 WNW 17 28 9 15 1008.2 1007.8 2.4
01/04:30am 12.7 10.3 12.7 100 0.0 WNW 17 24 9 13 1008.2 1007.8 2.2
01/04:00am 12.8 11.6 12.8 100 0.0 WNW 11 17 6 9 1008.3 1007.9 2.0
01/03:30am 12.6 11.3 12.6 100 0.0 W 11 17 6 9 1008.2 1007.8 1.8
01/03:00am 12.4 11.1 12.4 100 0.0 WNW 11 17 6 9 1008.2 1007.8 1.6
01/02:30am 12.7 11.8 12.7 100 0.0 NW 9 13 5 7 1008.1 1007.7 1.6
01/02:00am 12.5 11.2 12.5 100 0.0 NW 11 15 6 8 1008.3 1007.9 1.6
01/01:30am 12.5 10.8 12.5 100 0.0 WNW 13 19 7 10 1008.7 1008.3 1.4
01/01:00am 12.8 12.0 12.8 100 0.0 WNW 9 15 5 8 1009.0 1008.6 1.4
01/12:30am 12.7 11.5 12.7 100 0.0 W 11 17 6 9 1009.2 1008.8 1.2
01/12:00am 12.7 12.2 12.7 100 0.0 WNW 7 11 4 6 1009.4 1009.0 1.0
 
Date/Time
WST
Temp
°C
App
Temp
°C
Dew
Point
°C
Rel
Hum
%
Delta-T
°C
Wind Press
QNH
hPa
Press
MSL
hPa
Rain since
9am
mm
Dir  Spd
km/h
Gust
km/h
Spd
kts
Gust
kts
30/11:30pm 12.9 12.1 12.9 100 0.0 WSW 9 13 5 7 1009.9 1009.4 1.0
30/11:00pm 13.2 12.9 13.2 100 0.0 W 7 13 4 7 1010.1 1009.6 0.8
30/10:30pm 12.9 12.5 12.9 100 0.0 W 7 11 4 6 1010.2 1009.7 0.8
30/10:00pm 12.9 12.5 12.9 100 0.0 W 7 9 4 5 1010.4 1009.9 0.8
30/09:30pm 13.3 13.0 13.3 100 0.0 W 7 9 4 5 1010.6 1010.1 0.8
30/09:00pm 13.4 12.8 13.4 100 0.0 W 9 13 5 7 1010.6 1010.1 0.8
30/08:30pm 13.3 12.3 13.3 100 0.0 W 11 17 6 9 1010.6 1010.1 0.8
30/08:00pm 13.7 12.4 13.7 100 0.0 WSW 13 24 7 13 1010.6 1010.1 0.2
30/07:30pm 14.0 11.6 13.7 98 0.2 WNW 19 26 10 14 1010.5 1010.0 0.0
30/07:00pm 14.9 11.7 11.3 79 2.0 W 19 26 10 14 1010.3 1009.8 0.0
30/06:30pm 16.1 12.4 10.0 67 3.2 W 20 30 11 16 1010.0 1009.5 0.0
30/06:00pm 16.8 12.1 9.2 61 4.0 W 24 33 13 18 1009.9 1009.4 0.0
30/05:30pm 18.0 13.6 8.8 55 4.8 W 22 32 12 17 1009.5 1009.1 0.0
30/05:00pm 18.9 14.4 8.6 51 5.4 W 22 35 12 19 1009.3 1008.9 0.0
30/04:30pm 19.6 15.4 8.3 48 5.9 W 20 32 11 17 1009.2 1008.8 0.0
30/04:00pm 19.6 14.9 7.7 46 6.2 WSW 22 39 12 21 1009.3 1008.9 0.0
30/03:30pm 21.1 16.4 7.7 42 7.0 WSW 22 33 12 18 1008.9 1008.5 0.0
30/03:00pm 21.1 15.8 7.0 40 7.3 W 24 37 13 20 1008.9 1008.5 0.0
30/02:30pm 21.6 16.5 5.9 36 8.0 WSW 22 37 12 20 1009.0 1008.6 0.0
30/02:00pm 21.2 15.7 5.9 37 7.8 WSW 24 37 13 20 1009.2 1008.8 0.0
30/01:30pm 20.7 15.6 5.9 38 7.5 WSW 22 35 12 19 1009.5 1009.1 0.0
30/01:00pm 20.7 15.2 5.9 38 7.5 W 24 37 13 20 1009.8 1009.3 0.0
30/12:30pm 20.3 15.7 6.3 40 7.1 W 20 33 11 18 1010.2 1009.7 0.0
30/12:00pm 20.0 15.6 6.7 42 6.8 W 19 26 10 14 1010.5 1010.0 0.0
30/11:30am 19.3 14.6 6.1 42 6.6 WSW 20 30 11 16 1011.0 1010.6 0.0
30/11:00am 18.4 13.9 6.3 45 6.1 WSW 19 30 10 16 1011.3 1010.9 0.0
30/10:30am 17.4 13.3 6.0 47 5.6 W 17 26 9 14 1011.5 1011.1 0.0
30/10:00am 16.7 12.7 6.5 51 5.1 WSW 17 28 9 15 1011.6 1011.2 0.0
30/09:30am 16.1 12.0 6.3 52 4.8 WSW 17 26 9 14 1011.9 1011.5 0.0
30/09:00am 15.2 12.0 6.7 57 4.2 SW 13 19 7 10 1012.3 1011.9 0.0
30/08:30am 13.9 11.9 7.2 64 3.3 SSW 7 13 4 7 1012.4 1012.0 0.0
30/08:00am 11.8 10.3 6.7 71 2.5 S 4 7 2 4 1012.4 1012.0 0.0
30/07:30am 10.0 9.1 6.2 77 1.8 CALM 0 0 0 0 1012.2 1011.8 0.0
30/07:00am 7.5 6.5 5.6 88 0.9 CALM 0 0 0 0 1012.2 1011.8 0.0
30/06:30am 5.8 4.4 5.7 99 0.0 SW 2 4 1 2 1011.8 1011.4 0.0
30/06:00am 4.9 3.3 4.5 97 0.2 SW 2 2 1 1 1011.8 1011.4 0.0
30/05:30am 5.7 3.8 5.1 96 0.3 WSW 4 6 2 3 1011.6 1011.2 0.0
30/05:00am 6.1 3.9 5.2 94 0.4 WSW 6 7 3 4 1011.8 1011.4 0.0
30/04:30am 6.4 4.0 5.4 93 0.4 WSW 7 9 4 5 1011.6 1011.2 0.0
30/04:00am 6.7 4.0 5.5 92 0.5 SW 9 13 5 7 1011.4 1011.0 0.0
30/03:30am 7.2 3.8 5.8 91 0.6 SW 13 17 7 9 1011.3 1010.9 0.0
30/03:00am 6.2 3.9 4.8 91 0.6 WSW 6 9 3 5 1011.1 1010.7 0.0
30/02:30am 6.2 3.8 4.5 89 0.7 WSW 6 9 3 5 1011.3 1010.9 0.0
30/02:00am 7.5 4.7 5.3 86 1.0 SW 9 13 5 7 1011.7 1011.3 0.0
30/01:30am 6.9 5.0 4.9 87 0.9 SSW 4 6 2 3 1011.8 1011.4 0.0
30/01:00am 7.3 5.0 5.0 85 1.0 SSW 6 6 3 3 1012.2 1011.8 0.0
30/12:30am 7.9 5.6 5.0 82 1.3 SSW 6 9 3 5 1012.5 1012.1 0.0
30/12:00am 8.6 5.8 5.0 78 1.6 SW 9 13 5 7 1012.9 1012.5 0.0
 
Date/Time
WST
Temp
°C
App
Temp
°C
Dew
Point
°C
Rel
Hum
%
Delta-T
°C
Wind Press
QNH
hPa
Press
MSL
hPa
Rain since
9am
mm
Dir  Spd
km/h
Gust
km/h
Spd
kts
Gust
kts
29/11:30pm 9.2 5.6 5.0 75 1.9 SW 13 17 7 9 1013.3 1012.9 0.0
29/11:00pm 9.6 6.4 5.0 73 2.1 SSW 11 17 6 9 1013.1 1012.7 0.0
29/10:30pm 10.1 6.9 5.1 71 2.3 SSW 11 15 6 8 1013.8 1013.3 0.0
29/10:00pm 10.8 7.6 5.1 68 2.6 SSW 11 17 6 9 1014.0 1013.6 0.0
29/09:30pm 11.7 7.7 5.1 64 3.1 SSW 15 20 8 11 1014.3 1013.9 0.0
29/09:00pm 12.1 8.1 5.0 62 3.3 SSW 15 20 8 11 1014.4 1014.0 0.0
29/08:30pm 12.9 9.3 4.8 58 3.8 SW 13 20 7 11 1014.3 1013.9 0.0
29/08:00pm 13.9 10.3 4.8 54 4.3 SW 13 20 7 11 1014.2 1013.8 0.0
29/07:30pm 15.0 10.9 4.4 49 5.0 WSW 15 22 8 12 1013.7 1013.2 0.0
29/07:00pm 16.5 13.6 1.4 36 6.8 SE 6 28 3 15 1013.5 1013.0 0.0
29/06:30pm 18.1 15.7 -3.3 23 8.8 CALM 0 0 0 0 1012.9 1012.5 0.0
29/06:00pm 21.7 19.0 -6.0 15 11.2 CALM 0 0 0 0 1012.9 1012.5 0.0
29/05:30pm 22.9 19.6 -8.0 12 12.2 E 2 6 1 3 1012.9 1012.5 0.0
29/05:00pm 23.5 19.5 -7.5 12 12.4 ESE 6 9 3 5 1013.1 1012.7 0.0
29/04:30pm 23.9 19.9 -7.2 12 12.5 NNE 6 15 3 8 1013.2 1012.8 0.0
29/04:00pm 23.9 19.3 -8.3 11 12.7 NE 9 17 5 9 1013.6 1013.1 0.0
29/03:30pm 23.6 19.6 -7.4 12 12.4 N 6 13 3 7 1013.9 1013.5 0.0
29/03:00pm 23.6 19.5 -6.4 13 12.2 NNE 7 15 4 8 1014.3 1013.9 0.0
29/02:30pm 23.1 18.8 -4.9 15 11.7 NE 9 19 5 10 1014.6 1014.2 0.0
29/02:00pm 21.8 17.9 -4.3 17 10.9 E 7 17 4 9 1015.4 1015.0 0.0
29/01:30pm 22.3 18.5 -3.9 17 11.1 NE 7 19 4 10 1015.8 1015.4 0.0
29/01:00pm 21.6 17.5 -3.0 19 10.5 ENE 9 20 5 11 1016.6 1016.2 0.0
29/12:30pm 20.6 16.1 -3.1 20 10.0 N 11 20 6 11 1017.5 1017.1 0.0
29/12:00pm 20.1 16.1 -2.3 22 9.6 NE 9 20 5 11 1018.1 1017.7 0.0
29/11:30am 19.3 14.9 -2.3 23 9.2 NE 11 24 6 13 1018.6 1018.2 0.0
29/11:00am 18.5 13.0 -2.4 24 8.8 NE 17 26 9 14 1018.8 1018.4 0.0
29/10:30am 17.5 12.1 -1.2 28 8.0 ENE 17 24 9 13 1019.2 1018.8 0.0
29/10:00am 17.1 11.7 -1.1 29 7.7 NE 17 24 9 13 1019.9 1019.5 0.0
29/09:30am 15.2 9.9 -0.9 33 6.8 NE 17 28 9 15 1020.2 1019.9 0.0
29/09:00am 14.5 8.8 -0.4 36 6.3 NE 19 28 10 15 1020.7 1020.4 0.0
29/08:30am 12.4 7.2 -0.1 42 5.2 NE 17 26 9 14 1020.9 1020.6 0.0
29/08:00am 11.3 5.2 0.1 46 4.6 ENE 22 30 12 16 1020.9 1020.6 0.0
29/07:30am 9.8 4.6 0.2 51 3.9 ENE 17 32 9 17 1020.7 1020.4 0.0
29/07:00am 7.5 3.6 0.9 63 2.7 ENE 11 15 6 8 1020.5 1020.2 0.0
29/06:30am 3.7 0.7 0.9 82 1.1 ENE 6 9 3 5 1020.3 1020.0 0.0
29/06:00am 1.4 -0.7 -0.5 87 0.7 CALM 0 0 0 0 1020.1 1019.8 0.0
29/05:30am 1.7 -0.4 -0.7 84 0.9 CALM 0 0 0 0 1020.4 1020.1 0.0
29/05:00am 1.8 -1.1 -0.9 82 1.0 E 4 6 2 3 1020.4 1020.1 0.0
29/04:30am 2.9 1.0 0.5 84 0.9 CALM 0 2 0 1 1020.5 1020.2 0.0
29/04:00am 3.2 0.4 -0.1 79 1.2 E 4 4 2 2 1020.5 1020.2 0.0
29/03:30am 3.9 0.6 -0.1 75 1.5 E 7 11 4 6 1020.3 1020.0 0.0
29/03:00am 4.4 1.1 0.0 73 1.7 ESE 7 9 4 5 1020.6 1020.3 0.0
29/02:30am 4.6 1.3 0.0 72 1.8 E 7 9 4 5 1020.6 1020.3 0.0
29/02:00am 4.9 1.6 -0.1 70 1.9 ESE 7 9 4 5 1020.8 1020.5 0.0
29/01:30am 6.1 3.0 0.4 67 2.3 E 6 7 3 4 1021.1 1020.8 0.0
29/01:00am 6.8 3.2 0.7 65 2.4 ESE 9 15 5 8 1021.0 1020.7 0.0
29/12:30am 7.2 3.3 0.9 64 2.6 ESE 11 17 6 9 1021.3 1020.9 0.0
29/12:00am 6.2 2.6 0.9 69 2.1 SE 9 15 5 8 1021.5 1021.1 0.0
 
Date/Time
WST
Temp
°C
App
Temp
°C
Dew
Point
°C
Rel
Hum
%
Delta-T
°C
Wind Press
QNH
hPa
Press
MSL
hPa
Rain since
9am
mm
Dir  Spd
km/h
Gust
km/h
Spd
kts
Gust
kts
28/11:30pm 6.0 2.7 0.1 66 2.3 SE 7 7 4 4 1021.7 1021.3 0.0
28/11:00pm 6.7 3.5 0.6 65 2.4 SE 7 9 4 5 1021.8 1021.4 0.0
28/10:30pm 7.6 4.0 0.3 60 2.9 SE 9 11 5 6 1021.9 1021.5 0.0
28/10:00pm 8.9 4.9 0.6 56 3.4 SE 11 15 6 8 1021.9 1021.5 0.0
28/09:30pm 9.0 5.0 0.7 56 3.4 SE 11 15 6 8 1022.1 1021.7 0.0
28/09:00pm 7.9 4.2 0.2 58 3.1 SE 9 11 5 6 1022.1 1021.7 0.0
28/08:30pm 9.2 5.9 0.1 53 3.7 SSE 7 9 4 5 1022.0 1021.6 0.0

Other Formats:

Comma delimited format used in spreadsheet applications
http://www.bom.gov.au/fwo/IDW60801/IDW60801.94417.axf

JavaScript Object Notation format (JSON) in row-major order
http://www.bom.gov.au/fwo/IDW60801/IDW60801.94417.json